Terminal Aerodrome Forecast
Issued by NWS

Home | Current Version | Previous Version | Text Only | Print | Product List | Glossary On
Versions: 1 2 3 4 5 6 7 8 9 10 11 12 13 14 15 16 17 18 19 20 21 22 23 24 25
000
FTUS41 KOKX 300200 AAA
TAFGON
TAF AMD
KGON 300238Z 3003/3024 16007KT P6SM BKN025
     FM300700 18008KT 4SM -SN SCT015 BKN025
      TEMPO 3007/3010 BKN015
     FM301300 25008KT 1SM -SN BKN007
     FM301700 31012G20KT P6SM VCSH SCT015 BKN025
     FM302100 31015G25KT P6SM SCT025 BKN035=

USA.gov is the U.S. government's official web portal to all federal, state and local government web resources and services.